Time;durP1;ratioP1;P1;durP2;ratioP2;P2;SDS_P1;SDS_P2;PMS_P1;PMS_P2;Temp;Humidity;BMP_temperature;BMP_pressure;BME280_temperature;BME280_humidity;BME280_pressure;Samples;Min_cycle;Max_cycle;Signal;HPM_P1;HPM_P2
2021/03/26 00:02:04;;;;;;;19.67;12.47;;;11.20;71.30;;;;;;4988274;28;20470;-41
2021/03/26 00:04:33;;;;;;;15.50;10.07;;;11.20;71.40;;;;;;4982704;28;20556;-41
2021/03/26 00:06:59;;;;;;;18.03;12.17;;;11.20;71.60;;;;;;4987666;28;20488;-41
2021/03/26 00:09:28;;;;;;;17.17;11.43;;;11.20;71.60;;;;;;4983930;28;20553;-41
2021/03/26 00:11:57;;;;;;;17.43;11.27;;;11.10;71.70;;;;;;4988575;28;20466;-41
2021/03/26 00:14:24;;;;;;;17.60;10.90;;;11.10;71.70;;;;;;4987490;28;20454;-42
2021/03/26 00:16:50;;;;;;;16.20;10.83;;;11.10;71.70;;;;;;4984467;28;20477;-42
2021/03/26 00:19:17;;;;;;;19.30;10.97;;;11.10;71.70;;;;;;4986235;28;20502;-42
2021/03/26 00:21:43;;;;;;;13.53;9.23;;;11.00;71.60;;;;;;4986449;28;20465;-41
2021/03/26 00:24:10;;;;;;;16.20;10.77;;;11.00;71.80;;;;;;4986856;28;20465;-41
2021/03/26 00:26:38;;;;;;;16.07;11.70;;;11.00;71.80;;;;;;5000192;28;20830;-41
2021/03/26 00:29:18;;;;;;;13.50;9.90;;;11.00;71.90;;;;;;4998729;28;20547;-41
2021/03/26 00:31:44;;;;;;;14.20;9.93;;;11.00;71.70;;;;;;4990110;28;20457;-41
2021/03/26 00:34:10;;;;;;;10.87;9.10;;;11.00;71.60;;;;;;4991671;28;20933;-41
2021/03/26 00:36:38;;;;;;;20.10;10.00;;;11.00;71.60;;;;;;4988164;28;20941;-41
2021/03/26 00:39:06;;;;;;;17.60;11.23;;;10.90;71.80;;;;;;4988422;28;22965;-41
2021/03/26 00:41:33;;;;;;;17.00;10.27;;;10.90;71.90;;;;;;4990490;28;20828;-41
2021/03/26 00:44:02;;;;;;;15.70;9.93;;;10.90;72.00;;;;;;4990915;28;20461;-41
2021/03/26 00:46:28;;;;;;;14.13;9.97;;;10.80;72.20;;;;;;4987439;28;20463;-41
2021/03/26 00:48:55;;;;;;;16.40;10.70;;;10.80;72.40;;;;;;5006507;28;20465;-41
2021/03/26 00:51:21;;;;;;;19.90;10.30;;;10.80;72.50;;;;;;5002550;28;20511;-42
2021/03/26 00:53:48;;;;;;;16.37;10.43;;;10.80;72.70;;;;;;4988739;28;20460;-42
2021/03/26 00:56:14;;;;;;;16.50;11.10;;;10.80;72.60;;;;;;4990964;28;20461;-41
2021/03/26 00:58:40;;;;;;;14.37;10.63;;;10.80;72.60;;;;;;4987511;28;20460;-42
2021/03/26 01:01:07;;;;;;;18.90;10.40;;;10.90;72.50;;;;;;4991252;28;20453;-41
2021/03/26 01:03:33;;;;;;;14.80;9.90;;;10.80;72.60;;;;;;4986661;28;20510;-42
2021/03/26 01:06:04;;;;;;;12.80;9.77;;;10.80;72.70;;;;;;5008068;28;20949;-42
2021/03/26 01:08:31;;;;;;;17.07;10.73;;;10.80;72.70;;;;;;4988862;28;20489;-41
2021/03/26 01:11:05;;;;;;;16.73;10.07;;;10.80;72.80;;;;;;4988647;28;21179;-41
2021/03/26 01:13:32;;;;;;;14.43;10.97;;;10.80;72.80;;;;;;4990448;28;20539;-41
2021/03/26 01:15:58;;;;;;;18.23;10.90;;;10.80;72.80;;;;;;4991016;28;20551;-41
2021/03/26 01:18:31;;;;;;;17.83;10.60;;;10.80;72.90;;;;;;4990450;28;20500;-40
2021/03/26 01:20:59;;;;;;;17.57;11.20;;;10.80;72.80;;;;;;4989357;28;20469;-43
2021/03/26 01:23:27;;;;;;;14.30;9.80;;;10.80;72.90;;;;;;4986352;28;20983;-42
2021/03/26 01:25:54;;;;;;;16.93;9.90;;;10.80;72.90;;;;;;4992999;28;20880;-43
2021/03/26 01:28:23;;;;;;;16.20;10.13;;;10.80;72.90;;;;;;4990328;28;20485;-42
2021/03/26 01:30:49;;;;;;;15.60;11.27;;;10.80;73.00;;;;;;4990042;28;20457;-42
2021/03/26 01:33:16;;;;;;;13.20;8.70;;;10.70;73.10;;;;;;4988102;28;20488;-43
2021/03/26 01:35:43;;;;;;;17.17;9.60;;;10.70;73.20;;;;;;4989735;28;20468;-43
2021/03/26 01:38:10;;;;;;;17.23;9.33;;;10.70;73.20;;;;;;4989377;28;20479;-42
2021/03/26 01:40:43;;;;;;;17.93;11.20;;;10.70;73.10;;;;;;4986089;28;20971;-42
2021/03/26 01:43:20;;;;;;;17.40;10.83;;;10.70;73.00;;;;;;4988325;28;20553;-44
2021/03/26 01:45:47;;;;;;;17.13;11.40;;;10.70;72.90;;;;;;4988091;28;20453;-44
2021/03/26 01:48:31;;;;;;;13.53;11.17;;;10.70;72.90;;;;;;4988116;28;21266;-44
2021/03/26 01:50:59;;;;;;;16.17;9.77;;;10.70;73.00;;;;;;5002811;28;20471;-44
2021/03/26 01:53:26;;;;;;;18.07;10.10;;;10.70;73.00;;;;;;4988489;28;20458;-44
2021/03/26 01:55:59;;;;;;;19.90;10.30;;;10.70;73.00;;;;;;4988470;28;20572;-44
2021/03/26 01:58:29;;;;;;;17.40;11.20;;;10.70;73.00;;;;;;4987317;28;20465;-44
2021/03/26 02:01:15;;;;;;;15.33;10.00;;;10.70;73.00;;;;;;4989868;28;20465;-44
2021/03/26 02:03:45;;;;;;;13.30;9.70;;;10.60;73.00;;;;;;4986077;28;20464;-45
2021/03/26 02:06:31;;;;;;;16.37;11.00;;;10.60;73.00;;;;;;4988812;28;20469;-44
2021/03/26 02:09:07;;;;;;;17.67;11.00;;;10.60;73.00;;;;;;4987246;28;20541;-44
2021/03/26 02:11:55;;;;;;;14.93;10.17;;;10.60;73.00;;;;;;4986870;28;20452;-44
2021/03/26 02:14:35;;;;;;;17.33;10.77;;;10.60;73.10;;;;;;4984005;28;20461;-44
2021/03/26 02:17:03;;;;;;;16.30;10.70;;;10.60;73.10;;;;;;4985946;28;20495;-43
2021/03/26 02:19:48;;;;;;;18.70;10.30;;;10.60;73.20;;;;;;4990311;28;20520;-42
2021/03/26 02:22:15;;;;;;;20.30;11.70;;;10.60;73.30;;;;;;4985510;28;20456;-44
2021/03/26 02:24:43;;;;;;;12.50;9.60;;;10.50;73.30;;;;;;4988937;28;20552;-41
2021/03/26 02:27:14;;;;;;;18.67;10.80;;;10.50;73.30;;;;;;4988167;28;20484;-41
2021/03/26 02:29:40;;;;;;;22.23;10.67;;;10.50;73.30;;;;;;5001146;28;20453;-41
2021/03/26 02:32:31;;;;;;;14.53;9.90;;;10.50;73.30;;;;;;4988927;28;20457;-41
2021/03/26 02:35:06;;;;;;;17.13;11.23;;;10.50;73.60;;;;;;4986014;28;20832;-41
2021/03/26 02:37:33;;;;;;;15.80;10.90;;;10.50;73.30;;;;;;4990444;28;20472;-41
2021/03/26 02:40:00;;;;;;;14.20;10.70;;;10.40;73.40;;;;;;4986687;28;20461;-41
2021/03/26 02:42:31;;;;;;;18.50;10.50;;;10.40;73.60;;;;;;4988402;28;20563;-41
2021/03/26 02:45:21;;;;;;;14.43;9.77;;;10.30;73.70;;;;;;4985691;28;20540;-42
2021/03/26 02:47:58;;;;;;;22.00;10.03;;;10.30;73.70;;;;;;4986733;28;20503;-41
2021/03/26 02:50:46;;;;;;;13.70;9.93;;;10.30;73.70;;;;;;4987599;28;20989;-41
2021/03/26 02:53:28;;;;;;;17.60;10.00;;;10.30;73.80;;;;;;4988239;28;20457;-42
2021/03/26 02:55:59;;;;;;;19.50;11.80;;;10.30;73.90;;;;;;5004858;28;20519;-41
2021/03/26 02:58:30;;;;;;;20.87;10.33;;;10.20;73.90;;;;;;4986981;28;20555;-41
2021/03/26 03:01:24;;;;;;;15.20;10.70;;;10.20;74.10;;;;;;5000094;28;20465;-41
2021/03/26 03:03:55;;;;;;;14.93;9.80;;;10.20;74.10;;;;;;4987080;28;20450;-41
2021/03/26 03:06:24;;;;;;;18.17;11.57;;;10.20;74.20;;;;;;4987553;28;20487;-41
2021/03/26 03:08:54;;;;;;;16.43;10.50;;;10.20;74.30;;;;;;4987836;28;20475;-41
2021/03/26 03:11:32;;;;;;;14.23;9.23;;;10.10;74.40;;;;;;4987474;28;20466;-41
2021/03/26 03:14:31;;;;;;;16.60;10.30;;;10.10;74.40;;;;;;4986644;28;20469;-41
2021/03/26 03:17:15;;;;;;;16.90;11.50;;;10.00;74.50;;;;;;4976986;28;20489;-41
2021/03/26 03:19:51;;;;;;;17.73;11.53;;;10.00;74.60;;;;;;4983547;28;20974;-41
2021/03/26 03:22:44;;;;;;;17.33;11.40;;;10.00;74.70;;;;;;4987151;28;20560;-41
2021/03/26 03:25:17;;;;;;;13.43;9.80;;;10.00;74.80;;;;;;4986258;28;20461;-41
2021/03/26 03:27:52;;;;;;;13.67;9.80;;;10.00;74.90;;;;;;4990863;28;20492;-44
2021/03/26 03:30:38;;;;;;;17.20;10.30;;;9.90;74.90;;;;;;4986471;28;20461;-44
2021/03/26 03:33:23;;;;;;;20.63;11.30;;;9.90;75.00;;;;;;4987224;28;20950;-45
2021/03/26 03:35:57;;;;;;;16.33;9.70;;;9.90;75.00;;;;;;5001610;28;20858;-44
2021/03/26 03:39:06;;;;;;;20.83;10.93;;;9.90;75.10;;;;;;4984595;28;20453;-44
2021/03/26 03:41:44;;;;;;;16.97;10.87;;;9.90;75.20;;;;;;5002989;28;20452;-44
2021/03/26 03:44:28;;;;;;;16.40;9.90;;;9.80;75.30;;;;;;5004487;28;20455;-42
2021/03/26 03:47:06;;;;;;;18.10;9.80;;;9.90;75.50;;;;;;5004999;28;20486;-42
2021/03/26 03:49:44;;;;;;;18.57;10.70;;;9.80;75.40;;;;;;4988280;28;20551;-42
2021/03/26 03:52:19;;;;;;;20.80;11.27;;;9.80;75.40;;;;;;4987240;28;20465;-42
2021/03/26 03:54:55;;;;;;;17.47;10.90;;;9.80;75.50;;;;;;4986226;28;20720;-42
2021/03/26 03:57:31;;;;;;;14.27;10.90;;;9.80;75.50;;;;;;4989308;28;20459;-42
2021/03/26 04:00:07;;;;;;;15.87;11.13;;;9.80;75.60;;;;;;4987025;28;21925;-42
2021/03/26 04:02:55;;;;;;;27.03;12.40;;;9.70;75.60;;;;;;4987756;28;20510;-43
2021/03/26 04:05:57;;;;;;;17.00;10.93;;;9.70;75.70;;;;;;5002268;28;20453;-43
2021/03/26 04:08:40;;;;;;;16.97;10.70;;;9.70;75.80;;;;;;4980312;28;20580;-43
2021/03/26 04:11:42;;;;;;;16.37;12.07;;;9.70;75.80;;;;;;4988126;28;20515;-43
2021/03/26 04:14:26;;;;;;;17.13;10.90;;;9.60;75.80;;;;;;4990046;28;20592;-42
2021/03/26 04:17:03;;;;;;;15.60;10.00;;;9.60;75.90;;;;;;4991394;28;20496;-43
2021/03/26 04:19:44;;;;;;;15.40;9.60;;;9.50;76.00;;;;;;4989675;28;20468;-43
2021/03/26 04:22:17;;;;;;;20.63;10.93;;;9.50;76.00;;;;;;5005126;28;20505;-43
2021/03/26 04:24:51;;;;;;;17.97;11.27;;;9.50;76.00;;;;;;5005158;28;21064;-42
2021/03/26 04:27:33;;;;;;;15.97;11.30;;;9.40;76.00;;;;;;4991197;28;20481;-42
2021/03/26 04:30:13;;;;;;;20.97;11.60;;;9.40;76.10;;;;;;4989866;28;20847;-42
2021/03/26 04:32:40;;;;;;;16.20;11.10;;;9.30;76.10;;;;;;4990399;28;20461;-42
2021/03/26 04:35:10;;;;;;;16.10;10.67;;;9.30;76.20;;;;;;4991864;28;20540;-42
2021/03/26 04:38:01;;;;;;;19.77;11.00;;;9.30;76.30;;;;;;4990756;28;20457;-42
2021/03/26 04:40:33;;;;;;;17.60;10.90;;;9.20;76.40;;;;;;5005706;28;21012;-44
2021/03/26 04:43:15;;;;;;;19.00;9.90;;;9.20;76.50;;;;;;4990961;28;20461;-43
2021/03/26 04:45:56;;;;;;;21.53;11.43;;;9.20;76.50;;;;;;5006234;28;20472;-42
2021/03/26 04:49:05;;;;;;;16.60;11.20;;;9.20;76.50;;;;;;4989427;28;20495;-43
2021/03/26 04:51:40;;;;;;;18.30;10.90;;;9.10;76.60;;;;;;4989702;28;20460;-42
2021/03/26 04:54:11;;;;;;;18.40;11.10;;;9.10;76.60;;;;;;4990188;28;20858;-43
2021/03/26 04:57:11;;;;;;;20.83;11.20;;;9.00;76.70;;;;;;4989345;28;20457;-44
2021/03/26 04:59:49;;;;;;;17.40;11.07;;;9.00;76.70;;;;;;4983436;28;20469;-44
2021/03/26 05:02:16;;;;;;;20.10;11.80;;;8.90;76.80;;;;;;4990504;28;20461;-44
2021/03/26 05:04:44;;;;;;;16.00;10.93;;;8.90;76.80;;;;;;4991631;28;20511;-44
2021/03/26 05:07:17;;;;;;;18.10;11.67;;;8.80;76.90;;;;;;4992275;28;20489;-44
2021/03/26 05:09:48;;;;;;;14.77;10.90;;;8.80;76.90;;;;;;5007756;28;20449;-44
2021/03/26 05:12:19;;;;;;;35.80;13.80;;;8.70;76.90;;;;;;4988289;28;20497;-43
2021/03/26 05:14:55;;;;;;;19.30;11.10;;;8.70;77.00;;;;;;4990113;28;20461;-42
2021/03/26 05:17:47;;;;;;;15.90;11.10;;;8.70;77.10;;;;;;4992323;28;20874;-43
2021/03/26 05:20:32;;;;;;;19.60;11.27;;;8.60;77.10;;;;;;4986475;28;20461;-42
2021/03/26 05:23:20;;;;;;;19.93;11.03;;;8.50;77.10;;;;;;4990223;28;20466;-43
2021/03/26 05:25:49;;;;;;;23.43;12.97;;;8.50;77.40;;;;;;4992767;28;20461;-40
2021/03/26 05:28:25;;;;;;;22.60;13.53;;;8.40;77.40;;;;;;4990478;28;20480;-40
2021/03/26 05:30:53;;;;;;;19.10;12.57;;;8.40;77.40;;;;;;4992634;28;20457;-40
2021/03/26 05:33:39;;;;;;;23.80;13.60;;;8.40;77.40;;;;;;4993236;28;20453;-40
2021/03/26 05:36:17;;;;;;;16.73;11.77;;;8.40;77.60;;;;;;4985586;28;20920;-40
2021/03/26 05:38:50;;;;;;;19.97;12.10;;;8.40;77.70;;;;;;4988600;28;21026;-40
2021/03/26 05:41:53;;;;;;;18.20;11.53;;;8.30;77.70;;;;;;4989750;28;20460;-40
2021/03/26 05:44:22;;;;;;;19.73;12.53;;;8.30;77.80;;;;;;4991815;28;20934;-40
2021/03/26 05:47:06;;;;;;;20.23;13.90;;;8.20;78.00;;;;;;4988634;28;20464;-40
2021/03/26 05:50:02;;;;;;;20.80;12.93;;;8.30;78.10;;;;;;5005525;28;20959;-40
2021/03/26 05:52:43;;;;;;;23.07;13.87;;;8.20;78.30;;;;;;4989626;28;20461;-40
2021/03/26 05:55:40;;;;;;;22.20;12.63;;;8.20;78.40;;;;;;4991646;28;20467;-40
2021/03/26 05:58:51;;;;;;;20.73;12.93;;;8.20;78.50;;;;;;4988230;28;20459;-40
2021/03/26 06:01:26;;;;;;;19.27;12.90;;;8.20;78.60;;;;;;4991014;28;20556;-40
2021/03/26 06:04:44;;;;;;;20.57;14.03;;;8.20;78.60;;;;;;4989206;28;20465;-40
2021/03/26 06:07:35;;;;;;;26.93;14.10;;;8.20;78.70;;;;;;4988425;28;20482;-40
2021/03/26 06:10:26;;;;;;;24.00;13.70;;;8.30;78.50;;;;;;4988950;28;20503;-40
2021/03/26 06:13:20;;;;;;;26.00;14.63;;;8.30;78.60;;;;;;5002309;28;20465;-40
2021/03/26 06:16:28;;;;;;;21.70;14.70;;;8.30;78.60;;;;;;4989381;28;20829;-40
2021/03/26 06:19:16;;;;;;;24.70;15.20;;;8.30;78.60;;;;;;4989627;28;20488;-40
2021/03/26 06:22:20;;;;;;;22.50;14.03;;;8.40;78.60;;;;;;4988755;28;21030;-40
2021/03/26 06:25:01;;;;;;;24.20;16.90;;;8.40;78.50;;;;;;5001010;28;20465;-40
2021/03/26 06:27:39;;;;;;;24.50;15.87;;;8.60;78.50;;;;;;4986987;28;20484;-40
2021/03/26 06:30:18;;;;;;;19.73;14.03;;;8.60;78.30;;;;;;4989092;28;20451;-40
2021/03/26 06:33:18;;;;;;;27.77;16.63;;;8.60;78.40;;;;;;4987768;28;20457;-40
2021/03/26 06:35:55;;;;;;;23.90;14.47;;;8.60;78.40;;;;;;5003591;28;20457;-40
2021/03/26 06:38:30;;;;;;;23.07;14.17;;;8.60;78.40;;;;;;4990554;28;20876;-40
2021/03/26 06:41:34;;;;;;;20.90;14.53;;;8.60;78.40;;;;;;4987250;28;21008;-40
2021/03/26 06:44:27;;;;;;;25.07;15.80;;;8.70;78.30;;;;;;4987656;28;20491;-40
2021/03/26 06:47:38;;;;;;;25.57;15.63;;;8.80;78.40;;;;;;5002261;28;20465;-40
2021/03/26 06:50:30;;;;;;;26.53;16.23;;;8.90;78.30;;;;;;4981557;28;20844;-40
2021/03/26 06:53:16;;;;;;;28.40;17.70;;;9.00;78.30;;;;;;4989287;28;20545;-40
2021/03/26 06:56:30;;;;;;;25.40;16.50;;;9.10;78.20;;;;;;4987407;28;20990;-40
2021/03/26 06:59:35;;;;;;;27.40;17.00;;;9.20;78.10;;;;;;4987235;28;20463;-40
2021/03/26 07:02:26;;;;;;;28.30;16.53;;;9.30;77.70;;;;;;4966064;28;20942;-40
2021/03/26 07:05:14;;;;;;;27.43;16.80;;;9.30;77.60;;;;;;5004486;28;20817;-40
2021/03/26 07:08:05;;;;;;;25.40;16.87;;;9.40;77.60;;;;;;4984932;28;20492;-40
2021/03/26 07:10:45;;;;;;;35.83;18.20;;;9.50;77.40;;;;;;4985892;28;20453;-40
2021/03/26 07:13:41;;;;;;;28.70;17.60;;;9.60;76.90;;;;;;4989753;28;20812;-40
2021/03/26 07:16:29;;;;;;;35.43;18.17;;;9.70;76.70;;;;;;4985593;28;20460;-40
2021/03/26 07:19:35;;;;;;;29.83;17.03;;;9.80;76.60;;;;;;4986720;28;20480;-40
2021/03/26 07:22:29;;;;;;;33.50;18.47;;;10.00;76.30;;;;;;4988278;28;20464;-40
2021/03/26 07:25:12;;;;;;;33.57;18.63;;;10.10;75.90;;;;;;4991066;28;20469;-40
2021/03/26 07:28:24;;;;;;;27.80;16.83;;;10.20;75.30;;;;;;4986078;28;20485;-40
2021/03/26 07:31:11;;;;;;;29.90;17.77;;;10.30;75.10;;;;;;4986193;28;20541;-40
2021/03/26 07:33:50;;;;;;;34.27;18.23;;;10.40;74.70;;;;;;4993740;28;20867;-41
2021/03/26 07:36:31;;;;;;;31.30;17.27;;;10.60;74.30;;;;;;4984221;28;20468;-40
2021/03/26 07:39:15;;;;;;;29.67;18.40;;;10.70;73.80;;;;;;5006619;28;20475;-40
2021/03/26 07:42:00;;;;;;;33.07;21.13;;;10.80;73.30;;;;;;5000430;28;20562;-40
2021/03/26 07:44:32;;;;;;;30.87;18.00;;;11.00;73.00;;;;;;5009170;28;20449;-40
2021/03/26 07:47:19;;;;;;;32.77;18.40;;;11.00;72.80;;;;;;5001845;28;20461;-40
2021/03/26 07:49:52;;;;;;;32.30;17.97;;;11.10;72.60;;;;;;5000990;28;20515;-41
2021/03/26 07:52:30;;;;;;;28.67;18.73;;;11.30;72.20;;;;;;4989570;28;20456;-40
2021/03/26 07:55:04;;;;;;;28.37;19.50;;;11.40;71.70;;;;;;4988122;28;20453;-40
2021/03/26 07:57:38;;;;;;;29.07;19.37;;;11.60;71.50;;;;;;4988991;28;20457;-41
2021/03/26 08:00:13;;;;;;;28.10;18.17;;;11.80;71.00;;;;;;4987645;28;20461;-40
2021/03/26 08:03:00;;;;;;;31.70;19.70;;;12.00;70.70;;;;;;5000231;28;20817;-40
2021/03/26 08:05:37;;;;;;;27.60;17.60;;;12.20;70.10;;;;;;4985348;28;20465;-41
2021/03/26 08:08:22;;;;;;;33.40;20.37;;;12.40;69.40;;;;;;4999530;28;20489;-40
2021/03/26 08:11:25;;;;;;;36.93;19.70;;;12.60;68.40;;;;;;4986497;28;20827;-40
2021/03/26 08:14:31;;;;;;;33.40;20.80;;;12.70;68.00;;;;;;4985918;28;20821;-41
2021/03/26 08:17:16;;;;;;;31.87;20.33;;;12.90;67.80;;;;;;4986760;28;20481;-41
2021/03/26 08:20:00;;;;;;;30.20;19.27;;;13.10;67.50;;;;;;4984446;28;20556;-41
2021/03/26 08:22:56;;;;;;;34.20;20.33;;;13.20;65.70;;;;;;4985166;28;20825;-40
2021/03/26 08:25:45;;;;;;;29.30;19.37;;;13.30;65.50;;;;;;4984682;28;20968;-41
2021/03/26 08:28:33;;;;;;;30.93;19.07;;;13.40;65.60;;;;;;4984639;28;20495;-40
2021/03/26 08:31:09;;;;;;;31.27;18.90;;;13.40;65.30;;;;;;4985459;28;20507;-40
2021/03/26 08:33:49;;;;;;;28.60;19.23;;;13.40;65.10;;;;;;5002247;28;20946;-41
2021/03/26 08:36:34;;;;;;;33.57;21.17;;;13.40;65.20;;;;;;5001297;28;20459;-41
2021/03/26 08:39:15;;;;;;;30.70;18.70;;;13.40;64.90;;;;;;4986225;28;20453;-40
2021/03/26 08:41:46;;;;;;;38.63;20.13;;;13.40;64.70;;;;;;4983667;28;20469;-40
2021/03/26 08:44:17;;;;;;;30.33;21.10;;;13.40;65.20;;;;;;4987567;28;20463;-41
2021/03/26 08:46:46;;;;;;;32.40;20.90;;;13.40;65.50;;;;;;4986593;28;20504;-40
2021/03/26 08:49:52;;;;;;;33.90;21.27;;;13.30;66.00;;;;;;4999630;28;20500;-40
2021/03/26 08:53:13;;;;;;;27.57;19.70;;;13.60;65.00;;;;;;4988072;28;20461;-40
2021/03/26 08:56:01;;;;;;;31.83;20.17;;;13.90;64.50;;;;;;4953382;28;20820;-41
2021/03/26 08:58:49;;;;;;;35.03;21.90;;;14.10;63.10;;;;;;4990109;28;20456;-40
2021/03/26 09:01:24;;;;;;;30.13;20.23;;;14.30;63.50;;;;;;4987507;28;20467;-40
2021/03/26 09:04:19;;;;;;;30.80;20.50;;;14.40;62.90;;;;;;4989125;28;20488;-40
2021/03/26 09:07:10;;;;;;;30.43;20.33;;;14.60;62.60;;;;;;4988946;28;20465;-40
2021/03/26 09:09:54;;;;;;;30.90;20.27;;;14.80;62.20;;;;;;5007598;28;20454;-40
2021/03/26 09:12:57;;;;;;;28.93;18.83;;;15.10;60.80;;;;;;5007243;28;20548;-40
2021/03/26 09:15:58;;;;;;;29.30;19.50;;;15.40;59.50;;;;;;4988689;28;20540;-40
2021/03/26 09:18:51;;;;;;;28.17;19.90;;;15.90;58.40;;;;;;4988126;28;20980;-40
2021/03/26 09:21:23;;;;;;;29.40;19.90;;;16.20;58.00;;;;;;4987899;28;20500;-40
2021/03/26 09:24:23;;;;;;;35.00;22.23;;;16.50;57.50;;;;;;4990382;28;20457;-40
2021/03/26 09:26:58;;;;;;;34.27;21.47;;;16.80;56.20;;;;;;4990892;28;20468;-40
2021/03/26 09:30:01;;;;;;;30.97;20.60;;;17.00;56.10;;;;;;4987655;28;20572;-40
2021/03/26 09:32:48;;;;;;;26.40;18.20;;;17.10;56.10;;;;;;4987833;28;20485;-40
2021/03/26 09:35:26;;;;;;;28.43;20.77;;;17.30;55.00;;;;;;4991952;28;20467;-40
2021/03/26 09:37:59;;;;;;;32.20;19.33;;;17.40;54.40;;;;;;4991498;28;20970;-40
2021/03/26 09:40:46;;;;;;;34.33;20.97;;;17.50;53.90;;;;;;5006359;28;20448;-40
2021/03/26 09:43:28;;;;;;;29.70;19.77;;;17.70;54.00;;;;;;4992808;28;20812;-40
2021/03/26 09:46:07;;;;;;;26.37;19.97;;;17.80;53.60;;;;;;4988657;28;20863;-40
2021/03/26 09:49:02;;;;;;;32.77;19.43;;;18.10;53.80;;;;;;4988864;28;20492;-40
2021/03/26 09:51:39;;;;;;;28.13;19.27;;;18.30;52.80;;;;;;4990162;28;20461;-40
2021/03/26 09:54:18;;;;;;;29.30;19.97;;;18.50;51.60;;;;;;4991457;28;20489;-40
2021/03/26 09:57:00;;;;;;;30.40;21.40;;;18.50;52.00;;;;;;4989994;28;21223;-40
2021/03/26 09:59:54;;;;;;;30.70;21.40;;;18.60;51.80;;;;;;5005759;28;20504;-40
2021/03/26 10:02:32;;;;;;;29.23;20.30;;;18.80;52.10;;;;;;4987055;28;21180;-40
2021/03/26 10:05:26;;;;;;;30.70;21.77;;;19.10;51.60;;;;;;4989239;28;20492;-40
2021/03/26 10:08:31;;;;;;;29.60;20.23;;;19.30;51.10;;;;;;5001608;28;20534;-41
2021/03/26 10:11:09;;;;;;;26.67;20.50;;;19.50;50.20;;;;;;4987685;28;20453;-40
2021/03/26 10:13:56;;;;;;;29.40;22.10;;;19.70;50.10;;;;;;4988506;28;20461;-40
2021/03/26 10:16:55;;;;;;;29.63;20.03;;;19.70;49.80;;;;;;4988374;28;20473;-41
2021/03/26 10:19:41;;;;;;;28.07;21.37;;;19.70;49.70;;;;;;4994492;28;20473;-41
2021/03/26 10:22:47;;;;;;;25.93;21.00;;;20.10;49.40;;;;;;4989249;28;20469;-40
2021/03/26 10:25:44;;;;;;;28.20;19.90;;;20.30;48.20;;;;;;4991356;28;20479;-41
2021/03/26 10:28:32;;;;;;;27.63;20.17;;;20.70;48.00;;;;;;4989833;28;20485;-41
2021/03/26 10:31:01;;;;;;;29.00;22.63;;;20.90;47.30;;;;;;4986642;28;20493;-40
2021/03/26 10:33:31;;;;;;;25.30;20.27;;;21.10;47.10;;;;;;5010264;28;20465;-41
2021/03/26 10:36:03;;;;;;;23.37;19.90;;;21.30;47.10;;;;;;4997813;28;20457;-41
2021/03/26 10:38:47;;;;;;;25.40;20.30;;;21.50;46.40;;;;;;4994799;28;20472;-41
2021/03/26 10:41:50;;;;;;;27.77;20.97;;;21.60;46.20;;;;;;4994188;28;21196;-41
2021/03/26 10:44:35;;;;;;;24.27;19.63;;;21.80;46.30;;;;;;4987864;28;20471;-41
2021/03/26 10:47:16;;;;;;;24.47;16.37;;;22.00;45.80;;;;;;5001254;28;20465;-41
2021/03/26 10:49:55;;;;;;;24.13;16.90;;;22.20;45.00;;;;;;4985884;28;20854;-41
2021/03/26 10:52:44;;;;;;;24.43;16.50;;;22.20;44.20;;;;;;4989117;28;20468;-41
2021/03/26 10:55:17;;;;;;;21.20;18.07;;;22.30;44.40;;;;;;5005949;28;20545;-41
2021/03/26 10:57:59;;;;;;;26.57;18.43;;;22.50;43.60;;;;;;4984932;28;20461;-41
2021/03/26 11:00:34;;;;;;;21.53;16.60;;;22.40;43.20;;;;;;4986495;28;20803;-41
2021/03/26 11:03:15;;;;;;;18.77;14.90;;;22.20;44.00;;;;;;4991600;28;20489;-41
2021/03/26 11:05:55;;;;;;;20.63;12.77;;;21.80;43.50;;;;;;4986425;28;20818;-41
2021/03/26 11:08:44;;;;;;;15.83;12.97;;;21.80;43.40;;;;;;4991604;28;20695;-41
2021/03/26 11:11:11;;;;;;;14.83;10.07;;;21.70;43.10;;;;;;4987410;28;20453;-41
2021/03/26 11:13:40;;;;;;;16.60;12.00;;;21.40;43.10;;;;;;4988615;28;20469;-41
2021/03/26 11:16:21;;;;;;;14.70;10.57;;;21.30;42.90;;;;;;4986885;28;20464;-41
2021/03/26 11:18:57;;;;;;;17.00;11.77;;;21.20;43.00;;;;;;5001123;28;20473;-41
2021/03/26 11:21:25;;;;;;;15.73;12.47;;;20.80;44.10;;;;;;4986554;28;20515;-40
2021/03/26 11:24:01;;;;;;;12.33;9.87;;;20.50;44.40;;;;;;4987584;28;20592;-41
2021/03/26 11:26:36;;;;;;;14.23;11.33;;;20.00;44.90;;;;;;4986945;28;20950;-41
2021/03/26 11:29:23;;;;;;;13.20;10.70;;;19.50;45.80;;;;;;4991279;28;20496;-41
2021/03/26 11:32:06;;;;;;;12.40;10.27;;;19.30;47.80;;;;;;4988312;28;20811;-41
2021/03/26 11:35:11;;;;;;;9.47;6.93;;;19.20;47.10;;;;;;4989377;28;20485;-41
2021/03/26 11:37:54;;;;;;;7.97;5.60;;;19.20;45.30;;;;;;4996146;28;20842;-40
2021/03/26 11:40:38;;;;;;;7.00;5.40;;;19.10;44.90;;;;;;4985983;28;20535;-40
2021/03/26 11:43:24;;;;;;;8.40;6.40;;;18.80;45.20;;;;;;4992190;28;20506;-40
2021/03/26 11:46:02;;;;;;;7.17;5.23;;;18.90;45.40;;;;;;4987639;28;20453;-40
2021/03/26 11:48:47;;;;;;;8.20;5.40;;;19.10;45.00;;;;;;4987366;28;20483;-40
2021/03/26 11:51:33;;;;;;;7.30;5.70;;;19.20;44.60;;;;;;4985193;28;20461;-40
2021/03/26 11:54:19;;;;;;;5.37;4.83;;;19.30;44.90;;;;;;4986519;28;20536;-40
2021/03/26 11:57:14;;;;;;;9.87;6.67;;;19.40;44.90;;;;;;4985510;28;20468;-40
2021/03/26 11:59:53;;;;;;;8.50;6.87;;;19.50;45.20;;;;;;4985164;28;20556;-41
2021/03/26 12:02:37;;;;;;;7.60;6.20;;;19.60;44.10;;;;;;5001776;28;20535;-41
2021/03/26 12:05:24;;;;;;;10.70;8.00;;;19.50;44.70;;;;;;4986187;28;20521;-41
2021/03/26 12:08:27;;;;;;;10.07;6.77;;;19.50;44.90;;;;;;4986037;28;20587;-41
2021/03/26 12:11:13;;;;;;;8.50;5.77;;;19.50;44.70;;;;;;5002646;28;21140;-40
2021/03/26 12:13:50;;;;;;;7.87;6.33;;;19.60;44.50;;;;;;4986547;28;20453;-41
2021/03/26 12:16:31;;;;;;;9.17;5.83;;;19.60;44.30;;;;;;4990971;28;20901;-41
2021/03/26 12:18:57;;;;;;;12.40;7.80;;;19.60;44.80;;;;;;4987646;28;20487;-41
2021/03/26 12:21:41;;;;;;;10.63;7.90;;;19.60;44.70;;;;;;4987587;28;20453;-40
2021/03/26 12:24:26;;;;;;;7.63;6.30;;;19.60;45.20;;;;;;4986990;28;20456;-41
2021/03/26 12:27:18;;;;;;;13.90;8.00;;;19.60;45.10;;;;;;4985673;28;20464;-41
2021/03/26 12:30:04;;;;;;;10.77;8.10;;;19.60;44.50;;;;;;4993111;28;20862;-41
2021/03/26 12:32:41;;;;;;;9.73;8.40;;;19.50;44.80;;;;;;4992291;28;20449;-41
2021/03/26 12:35:19;;;;;;;9.50;8.40;;;19.60;45.00;;;;;;4993113;28;20453;-41
2021/03/26 12:38:19;;;;;;;11.70;8.37;;;19.60;44.90;;;;;;4990273;28;20448;-41
2021/03/26 12:40:56;;;;;;;11.67;8.40;;;19.70;44.80;;;;;;4988183;28;20465;-41
2021/03/26 12:43:22;;;;;;;10.50;8.90;;;19.70;45.10;;;;;;4994390;28;20867;-41
2021/03/26 12:46:08;;;;;;;11.97;9.40;;;19.70;45.10;;;;;;4988510;28;20468;-40
2021/03/26 12:48:48;;;;;;;14.27;8.67;;;19.80;45.10;;;;;;4994821;28;20579;-40
2021/03/26 12:51:21;;;;;;;11.67;8.40;;;19.90;45.10;;;;;;5004398;28;20463;-41
2021/03/26 12:53:57;;;;;;;8.47;7.00;;;20.00;44.70;;;;;;4990262;28;20457;-41
2021/03/26 12:56:48;;;;;;;11.27;9.00;;;19.90;44.20;;;;;;4991632;28;20465;-41
2021/03/26 12:59:25;;;;;;;11.47;8.50;;;19.60;44.30;;;;;;5005259;28;20866;-41
2021/03/26 13:02:17;;;;;;;10.33;8.30;;;19.50;45.00;;;;;;4993143;28;20466;-41
2021/03/26 13:05:01;;;;;;;9.53;7.33;;;19.40;45.50;;;;;;4991934;28;20591;-41
2021/03/26 13:07:42;;;;;;;11.07;7.73;;;19.50;45.10;;;;;;4992898;28;20497;-41
2021/03/26 13:10:29;;;;;;;14.67;10.47;;;19.70;44.50;;;;;;4988858;28;20468;-41
2021/03/26 13:13:10;;;;;;;12.03;8.17;;;19.90;44.20;;;;;;4988190;28;20905;-41
2021/03/26 13:15:40;;;;;;;11.20;7.30;;;19.90;44.20;;;;;;5005014;28;20453;-41
2021/03/26 13:18:10;;;;;;;9.63;7.10;;;19.80;44.00;;;;;;4991302;28;20483;-41
2021/03/26 13:21:04;;;;;;;8.20;6.80;;;19.70;44.10;;;;;;5005422;28;20441;-41
2021/03/26 13:23:35;;;;;;;6.37;5.07;;;19.60;44.80;;;;;;5003775;28;20454;-41
2021/03/26 13:26:06;;;;;;;8.43;4.87;;;19.60;44.70;;;;;;4989250;28;20454;-41
2021/03/26 13:28:41;;;;;;;5.40;3.70;;;19.50;44.40;;;;;;4989015;28;20677;-41
2021/03/26 13:31:15;;;;;;;5.53;4.10;;;19.60;43.90;;;;;;4993469;28;20461;-41
2021/03/26 13:33:47;;;;;;;4.97;4.00;;;19.70;43.60;;;;;;4988167;28;20822;-41
2021/03/26 13:36:26;;;;;;;7.07;4.10;;;19.70;43.60;;;;;;4993153;28;20448;-41
2021/03/26 13:39:15;;;;;;;3.67;3.17;;;19.70;43.20;;;;;;4990034;28;20469;-41
2021/03/26 13:41:54;;;;;;;8.17;4.40;;;19.70;44.30;;;;;;4990521;28;20792;-41
2021/03/26 13:44:31;;;;;;;6.27;4.67;;;19.80;43.10;;;;;;5005786;28;20840;-41